createdAt,value
2022-08-11T00:00:49.547Z,17.69
2022-08-11T00:01:53.939Z,17.69
2022-08-11T00:03:03.723Z,17.69
2022-08-11T00:04:06.747Z,17.69
2022-08-11T00:05:12.224Z,17.68
2022-08-11T00:06:23.339Z,17.67
2022-08-11T00:07:27.167Z,17.67
2022-08-11T00:08:31.677Z,17.67
2022-08-11T00:09:39.396Z,17.66
2022-08-11T00:10:44.274Z,17.66
2022-08-11T00:11:50.485Z,17.65
2022-08-11T00:13:04.235Z,17.65
2022-08-11T00:14:14.450Z,17.65
2022-08-11T00:15:17.648Z,17.64
2022-08-11T00:16:22.811Z,17.64
2022-08-11T00:17:30.805Z,17.63
2022-08-11T00:18:41.667Z,17.62
2022-08-11T00:20:13.344Z,17.62
2022-08-11T00:21:09.898Z,17.61
2022-08-11T00:22:20.758Z,17.61
2022-08-11T00:23:24.189Z,17.60
2022-08-11T00:24:32.726Z,17.59
2022-08-11T00:25:43.735Z,17.58
2022-08-11T00:26:50.998Z,17.57
2022-08-11T00:27:54.627Z,17.56
2022-08-11T00:29:07.720Z,17.56
2022-08-11T00:30:11.715Z,17.56
2022-08-11T00:31:22.273Z,17.55
2022-08-11T00:32:25.540Z,17.55
2022-08-11T00:33:41.385Z,17.55
2022-08-11T00:34:48.750Z,17.55
2022-08-11T00:35:57.828Z,17.54
2022-08-11T00:37:11.203Z,17.53
2022-08-11T00:38:15.255Z,17.53
2022-08-11T00:39:20.499Z,17.52
2022-08-11T00:40:42.837Z,17.52
2022-08-11T00:42:06.977Z,17.51
2022-08-11T00:43:19.952Z,17.50
2022-08-11T00:44:38.977Z,17.50
2022-08-11T00:46:00.697Z,17.48
2022-08-11T00:47:09.908Z,17.47
2022-08-11T00:48:28.677Z,17.46
2022-08-11T00:49:47.167Z,17.45
2022-08-11T00:51:00.277Z,17.44
2022-08-11T00:52:15.340Z,17.43
2022-08-11T00:53:25.229Z,17.41
2022-08-11T00:54:46.714Z,17.40
2022-08-11T00:56:10.388Z,17.38
2022-08-11T00:57:36.791Z,17.35
2022-08-11T00:58:59.503Z,17.33
2022-08-11T01:00:11.624Z,17.32
2022-08-11T01:01:17.433Z,17.31
2022-08-11T01:02:30.647Z,17.30
2022-08-11T01:03:52.204Z,17.30
2022-08-11T01:05:13.771Z,17.29
2022-08-11T01:06:35.588Z,17.29
2022-08-11T01:08:01.525Z,17.29
2022-08-11T01:09:41.609Z,17.28
2022-08-11T01:10:47.248Z,17.28
2022-08-11T01:11:56.375Z,17.29
2022-08-11T01:13:14.615Z,17.28
2022-08-11T01:14:36.136Z,17.28
2022-08-11T01:15:40.280Z,17.27
2022-08-11T01:17:09.815Z,17.27
2022-08-11T01:18:32.838Z,17.26
2022-08-11T01:20:39.450Z,17.26
2022-08-11T01:21:16.838Z,17.26
2022-08-11T01:22:48.623Z,17.25
2022-08-11T01:24:00.467Z,17.25
2022-08-11T01:25:12.287Z,17.25
2022-08-11T01:26:34.296Z,17.25
2022-08-11T01:27:37.162Z,17.25
2022-08-11T01:28:59.348Z,17.25
2022-08-11T01:30:03.642Z,17.25
2022-08-11T01:31:23.735Z,17.24
2022-08-11T01:32:33.293Z,17.24
2022-08-11T01:33:55.420Z,17.22
2022-08-11T01:35:03.848Z,17.22
2022-08-11T01:36:06.643Z,17.21
2022-08-11T01:37:21.708Z,17.21
2022-08-11T01:38:33.772Z,17.21
2022-08-11T01:39:42.957Z,17.21
2022-08-11T01:41:04.268Z,17.21
2022-08-11T01:43:01.422Z,17.21
2022-08-11T01:44:31.845Z,17.22
2022-08-11T01:45:40.624Z,17.23
2022-08-11T01:46:52.249Z,17.22
2022-08-11T01:48:11.153Z,17.22
2022-08-11T01:49:28.978Z,17.22
2022-08-11T01:51:08.059Z,17.22
2022-08-11T01:52:33.698Z,17.22
2022-08-11T01:53:40.034Z,17.21
2022-08-11T01:54:52.198Z,17.22
2022-08-11T01:56:05.781Z,17.21
2022-08-11T01:57:08.719Z,17.20
2022-08-11T01:58:34.318Z,17.20
2022-08-11T01:59:49.438Z,17.18
2022-08-11T02:01:05.778Z,17.19
2022-08-11T02:02:42.061Z,17.18
2022-08-11T02:03:55.482Z,17.18
2022-08-11T02:05:03.326Z,17.19
2022-08-11T02:06:26.191Z,17.19
2022-08-11T02:07:38.523Z,17.20
2022-08-11T02:08:50.939Z,17.20
2022-08-11T02:10:22.609Z,17.19
2022-08-11T02:11:35.507Z,17.20
2022-08-11T02:12:52.479Z,17.20
2022-08-11T02:13:55.927Z,17.19
2022-08-11T02:15:05.234Z,17.20
2022-08-11T02:16:08.626Z,17.18
2022-08-11T02:17:18.752Z,17.18
2022-08-11T02:18:24.844Z,17.17
2022-08-11T02:19:55.412Z,17.17
2022-08-11T02:21:21.253Z,17.16
2022-08-11T02:22:51.669Z,17.15
2022-08-11T02:24:05.292Z,17.15
2022-08-11T02:25:20.801Z,17.14
2022-08-11T02:26:25.684Z,17.13
2022-08-11T02:27:37.643Z,17.13
2022-08-11T02:28:46.676Z,17.12
2022-08-11T02:30:05.066Z,17.12
2022-08-11T02:32:14.683Z,17.11
2022-08-11T02:33:17.938Z,17.11
2022-08-11T02:34:21.018Z,17.10
2022-08-11T02:35:36.771Z,17.09
2022-08-11T02:36:45.555Z,17.09
2022-08-11T02:37:48.430Z,17.09
2022-08-11T02:38:57.300Z,17.08
2022-08-11T02:40:10.944Z,17.09
2022-08-11T02:41:42.250Z,17.08
2022-08-11T02:42:45.584Z,17.08
2022-08-11T02:44:11.793Z,17.07
2022-08-11T02:45:33.534Z,17.07
2022-08-11T02:46:58.883Z,17.07
2022-08-11T02:48:20.367Z,17.06
2022-08-11T02:50:02.620Z,17.05
2022-08-11T02:51:13.745Z,17.05
2022-08-11T02:52:36.994Z,17.05
2022-08-11T02:53:58.683Z,17.05
2022-08-11T02:55:56.367Z,17.04
2022-08-11T02:56:39.216Z,17.03
2022-08-11T02:57:54.865Z,17.03
2022-08-11T02:59:34.318Z,17.03
2022-08-11T03:00:45.639Z,17.03
2022-08-11T03:01:53.206Z,17.02
2022-08-11T03:03:16.432Z,17.03
2022-08-11T03:04:37.519Z,17.03
2022-08-11T03:05:50.298Z,17.04
2022-08-11T03:07:01.355Z,17.04
2022-08-11T03:08:18.716Z,17.04
2022-08-11T03:09:40.575Z,17.04
2022-08-11T03:11:08.146Z,17.03
2022-08-11T03:12:34.722Z,17.03
2022-08-11T03:14:02.365Z,17.03
2022-08-11T03:15:32.986Z,17.03
2022-08-11T03:16:46.525Z,17.03
2022-08-11T03:17:59.347Z,17.03
2022-08-11T03:19:11.391Z,17.02
2022-08-11T03:20:33.296Z,17.01
2022-08-11T03:22:02.252Z,17.01
2022-08-11T03:23:19.472Z,17.01
2022-08-11T03:24:32.130Z,17.00
2022-08-11T03:25:49.707Z,17.00
2022-08-11T03:26:53.943Z,17.01
2022-08-11T03:28:08.747Z,17.00
2022-08-11T03:29:44.051Z,17.00
2022-08-11T03:30:50.521Z,16.98
2022-08-11T03:32:00.672Z,16.98
2022-08-11T03:33:34.399Z,16.97
2022-08-11T03:34:39.168Z,16.97
2022-08-11T03:35:47.980Z,16.97
2022-08-11T03:37:17.058Z,16.98
2022-08-11T03:38:30.710Z,16.98
2022-08-11T03:39:36.511Z,16.98
2022-08-11T03:41:49.346Z,16.99
2022-08-11T03:42:36.244Z,16.99
2022-08-11T03:43:50.326Z,17.00
2022-08-11T03:45:07.892Z,17.01
2022-08-11T03:46:15.205Z,17.03
2022-08-11T03:47:23.949Z,17.05
2022-08-11T03:48:40.545Z,17.05
2022-08-11T03:49:52.422Z,17.07
2022-08-11T03:51:07.354Z,17.09
2022-08-11T03:52:10.281Z,17.11
2022-08-11T03:53:28.267Z,17.12
2022-08-11T03:54:50.141Z,17.15
2022-08-11T03:56:13.282Z,17.17
2022-08-11T03:57:36.634Z,17.19
2022-08-11T03:58:59.786Z,17.22
2022-08-11T04:00:09.130Z,17.24
2022-08-11T04:01:34.955Z,17.26
2022-08-11T04:02:56.564Z,17.29
2022-08-11T04:04:18.770Z,17.32
2022-08-11T04:05:40.329Z,17.35
2022-08-11T04:07:01.949Z,17.38
2022-08-11T04:08:23.423Z,17.40
2022-08-11T04:09:46.289Z,17.44
2022-08-11T04:11:17.865Z,17.45
2022-08-11T04:12:35.964Z,17.49
2022-08-11T04:13:52.101Z,17.52
2022-08-11T04:15:16.563Z,17.55
2022-08-11T04:16:31.870Z,17.58
2022-08-11T04:17:35.699Z,17.61
2022-08-11T04:18:57.384Z,17.64
2022-08-11T04:20:18.893Z,17.68
2022-08-11T04:21:51.459Z,17.72
2022-08-11T04:22:55.247Z,17.77
2022-08-11T04:24:36.728Z,17.81
2022-08-11T04:25:31.152Z,17.86
2022-08-11T04:26:46.190Z,17.90
2022-08-11T04:28:07.958Z,17.94
2022-08-11T04:29:35.949Z,18.00
2022-08-11T04:30:58.112Z,18.05
2022-08-11T04:32:21.632Z,18.10
2022-08-11T04:33:37.642Z,18.15
2022-08-11T04:34:57.181Z,18.20
2022-08-11T04:36:15.424Z,18.24
2022-08-11T04:37:37.044Z,18.30
2022-08-11T04:38:42.654Z,18.36
2022-08-11T04:40:03.662Z,18.40
2022-08-11T04:41:14.404Z,18.45
2022-08-11T04:43:15.030Z,18.48
2022-08-11T04:44:52.224Z,18.56
2022-08-11T04:46:06.984Z,18.62
2022-08-11T04:48:04.492Z,18.66
2022-08-11T04:49:34.134Z,18.75
2022-08-11T04:51:16.647Z,18.82
2022-08-11T04:52:38.972Z,18.90
2022-08-11T04:54:15.076Z,18.96
2022-08-11T04:55:37.827Z,19.03
2022-08-11T04:57:02.448Z,19.08
2022-08-11T04:58:31.476Z,19.16
2022-08-11T05:00:11.430Z,19.23
2022-08-11T05:01:43.004Z,19.32
2022-08-11T05:02:46.147Z,19.39
2022-08-11T05:04:03.939Z,19.44
2022-08-11T05:05:28.509Z,19.49
2022-08-11T05:06:37.221Z,19.56
2022-08-11T05:07:53.658Z,19.62
2022-08-11T05:09:15.262Z,19.69
2022-08-11T05:10:39.989Z,19.75
2022-08-11T05:12:05.021Z,19.82
2022-08-11T05:13:27.793Z,19.88
2022-08-11T05:14:52.221Z,19.95
2022-08-11T05:16:15.140Z,20.02
2022-08-11T05:17:42.530Z,20.10
2022-08-11T05:19:09.050Z,20.19
2022-08-11T05:20:51.266Z,20.30
2022-08-11T05:22:13.944Z,20.45
2022-08-11T05:23:38.031Z,20.60
2022-08-11T05:25:04.284Z,20.73
2022-08-11T05:26:46.313Z,20.84
2022-08-11T05:28:09.148Z,21.06
2022-08-11T05:29:44.101Z,21.34
2022-08-11T05:31:06.174Z,21.72
2022-08-11T05:32:31.006Z,21.99
2022-08-11T05:33:54.747Z,22.18
2022-08-11T05:35:00.980Z,22.29
2022-08-11T05:36:18.048Z,22.34
2022-08-11T05:37:29.808Z,22.39
2022-08-11T05:38:54.539Z,22.43
2022-08-11T05:40:27.769Z,22.46
2022-08-11T05:41:50.239Z,22.49
2022-08-11T05:43:18.658Z,22.53
2022-08-11T05:44:40.488Z,22.56
2022-08-11T05:46:06.298Z,22.58
2022-08-11T05:47:30.459Z,22.60
2022-08-11T05:48:52.873Z,22.62
2022-08-11T05:50:15.308Z,22.66
2022-08-11T05:51:37.362Z,22.68
2022-08-11T05:53:03.887Z,22.70
2022-08-11T05:54:29.540Z,22.74
2022-08-11T05:56:02.304Z,22.77
2022-08-11T05:57:06.417Z,22.79
2022-08-11T05:58:11.520Z,22.83
2022-08-11T05:59:16.594Z,22.85
2022-08-11T06:00:20.367Z,22.87
2022-08-11T06:01:26.788Z,22.92
2022-08-11T06:02:30.703Z,22.96
2022-08-11T06:03:58.470Z,23.02
2022-08-11T06:05:02.663Z,23.09
2022-08-11T06:06:08.755Z,23.14
2022-08-11T06:07:13.263Z,23.20
2022-08-11T06:08:17.435Z,23.24
2022-08-11T06:09:29.822Z,23.28
2022-08-11T06:10:36.161Z,23.34
2022-08-11T06:11:43.073Z,23.38
2022-08-11T06:12:52.908Z,23.46
2022-08-11T06:13:57.480Z,23.56
2022-08-11T06:15:05.869Z,23.65
2022-08-11T06:16:09.231Z,23.76
2022-08-11T06:17:13.803Z,23.83
2022-08-11T06:18:17.323Z,23.93
2022-08-11T06:19:23.180Z,24.00
2022-08-11T06:20:26.491Z,24.05
2022-08-11T06:21:33.382Z,24.08
2022-08-11T06:22:36.789Z,24.13
2022-08-11T06:23:42.358Z,24.17
2022-08-11T06:24:51.629Z,24.21
2022-08-11T06:25:56.494Z,24.25
2022-08-11T06:27:15.812Z,24.25
2022-08-11T06:28:21.338Z,24.25
2022-08-11T06:29:46.763Z,24.26
2022-08-11T06:30:49.108Z,24.22
2022-08-11T06:31:53.760Z,24.22
2022-08-11T06:33:00.395Z,24.23
2022-08-11T06:34:12.947Z,24.25
2022-08-11T06:35:37.999Z,24.27
2022-08-11T06:36:54.432Z,24.29
2022-08-11T06:38:29.397Z,24.23
2022-08-11T06:39:51.057Z,24.07
2022-08-11T06:41:15.405Z,23.93
2022-08-11T06:42:37.468Z,23.79
2022-08-11T06:43:42.365Z,23.67
2022-08-11T06:45:08.443Z,23.57
2022-08-11T06:46:12.837Z,23.50
2022-08-11T06:47:31.794Z,23.42
2022-08-11T06:48:35.637Z,23.40
2022-08-11T06:50:01.891Z,23.44
2022-08-11T06:51:14.424Z,23.54
2022-08-11T06:52:35.099Z,23.64
2022-08-11T06:53:42.627Z,23.75
2022-08-11T06:55:08.085Z,23.84
2022-08-11T06:56:40.435Z,23.90
2022-08-11T06:58:05.705Z,23.97
2022-08-11T06:59:28.801Z,24.03
2022-08-11T07:00:33.481Z,24.08
2022-08-11T07:01:47.684Z,24.11
2022-08-11T07:03:00.819Z,24.15
2022-08-11T07:04:08.346Z,24.19
2022-08-11T07:05:23.576Z,24.22
2022-08-11T07:06:50.702Z,24.24
2022-08-11T07:08:35.188Z,24.29
2022-08-11T07:10:06.347Z,24.32
2022-08-11T07:11:46.585Z,24.36
2022-08-11T07:13:10.327Z,24.40
2022-08-11T07:14:52.436Z,24.45
2022-08-11T07:16:12.870Z,24.48
2022-08-11T07:17:19.724Z,24.51
2022-08-11T07:18:41.326Z,24.54
2022-08-11T07:20:06.370Z,24.58
2022-08-11T07:22:00.411Z,24.60
2022-08-11T07:23:16.058Z,24.65
2022-08-11T07:25:01.347Z,24.69
2022-08-11T07:26:22.124Z,24.73
2022-08-11T07:27:45.371Z,24.76
2022-08-11T07:28:59.164Z,24.74
2022-08-11T07:30:07.138Z,24.74
2022-08-11T07:31:14.221Z,24.77
2022-08-11T07:32:23.376Z,24.81
2022-08-11T07:34:07.268Z,24.83
2022-08-11T07:35:15.377Z,24.85
2022-08-11T07:36:20.349Z,24.87
2022-08-11T07:37:26.186Z,24.89
2022-08-11T07:38:47.220Z,24.91
2022-08-11T07:39:51.997Z,24.94
2022-08-11T07:40:58.294Z,24.95
2022-08-11T07:42:06.097Z,24.93
2022-08-11T07:43:09.779Z,24.94
2022-08-11T07:44:15.175Z,24.93
2022-08-11T07:45:38.969Z,24.92
2022-08-11T07:47:02.160Z,24.92
2022-08-11T07:48:26.167Z,24.91
2022-08-11T07:49:54.015Z,24.89
2022-08-11T07:51:16.325Z,24.89
2022-08-11T07:52:32.648Z,24.89
2022-08-11T07:53:41.716Z,24.88
2022-08-11T07:55:03.163Z,24.86
2022-08-11T07:56:07.377Z,24.85
2022-08-11T07:57:47.346Z,24.82
2022-08-11T07:59:13.204Z,24.68
2022-08-11T08:00:36.252Z,24.49
2022-08-11T08:01:58.599Z,24.35
2022-08-11T08:03:20.979Z,24.21
2022-08-11T08:04:47.147Z,24.09
2022-08-11T08:06:15.381Z,24.00
2022-08-11T08:07:51.408Z,23.90
2022-08-11T08:09:17.042Z,23.83
2022-08-11T08:10:39.196Z,23.77
2022-08-11T08:12:02.360Z,23.70
2022-08-11T08:13:25.048Z,23.64
2022-08-11T08:14:46.815Z,23.60
2022-08-11T08:16:08.465Z,23.59
2022-08-11T08:17:32.612Z,23.67
2022-08-11T08:18:36.410Z,23.81
2022-08-11T08:19:41.222Z,23.93
2022-08-11T08:20:49.838Z,24.03
2022-08-11T08:21:53.618Z,24.14
2022-08-11T08:23:08.384Z,24.26
2022-08-11T08:24:11.714Z,24.34
2022-08-11T08:25:15.265Z,24.41
2022-08-11T08:26:37.292Z,24.49
2022-08-11T08:27:43.702Z,24.56
2022-08-11T08:28:46.827Z,24.61
2022-08-11T08:30:08.686Z,24.65
2022-08-11T08:31:11.730Z,24.72
2022-08-11T08:32:16.457Z,24.75
2022-08-11T08:33:21.436Z,24.78
2022-08-11T08:34:24.769Z,24.78
2022-08-11T08:35:32.945Z,24.74
2022-08-11T08:36:36.972Z,24.63
2022-08-11T08:37:46.798Z,24.50
2022-08-11T08:38:54.083Z,24.37
2022-08-11T08:39:59.259Z,24.26
2022-08-11T08:41:02.695Z,24.16
2022-08-11T08:42:12.792Z,24.10
2022-08-11T08:43:17.454Z,24.04
2022-08-11T08:44:37.669Z,24.01
2022-08-11T08:45:42.916Z,23.99
2022-08-11T08:46:48.371Z,23.96
2022-08-11T08:48:00.057Z,23.92
2022-08-11T08:49:04.030Z,23.85
2022-08-11T08:50:10.753Z,23.79
2022-08-11T08:52:01.461Z,23.73
2022-08-11T08:52:59.826Z,23.68
2022-08-11T08:54:17.927Z,23.68
2022-08-11T08:55:21.953Z,23.67
2022-08-11T08:56:28.346Z,23.66
2022-08-11T08:57:39.957Z,23.67
2022-08-11T08:58:46.001Z,23.67
2022-08-11T08:59:49.809Z,23.67
2022-08-11T09:00:56.342Z,23.68
2022-08-11T09:02:03.607Z,23.68
2022-08-11T09:03:36.130Z,23.68
2022-08-11T09:04:30.065Z,23.70
2022-08-11T09:05:33.061Z,23.72
2022-08-11T09:06:50.046Z,23.73
2022-08-11T09:07:58.086Z,23.74
2022-08-11T09:09:01.053Z,23.75
2022-08-11T09:10:04.762Z,23.76
2022-08-11T09:11:27.232Z,23.75
2022-08-11T09:12:36.229Z,23.76
2022-08-11T09:13:44.554Z,23.79
2022-08-11T09:15:06.409Z,23.82
2022-08-11T09:16:10.306Z,23.86
2022-08-11T09:17:13.757Z,23.89
2022-08-11T09:18:18.105Z,23.91
2022-08-11T09:19:21.711Z,23.93
2022-08-11T09:20:29.403Z,23.95
2022-08-11T09:21:44.458Z,23.97
2022-08-11T09:24:08.781Z,24.00
2022-08-11T09:24:56.835Z,24.03
2022-08-11T09:26:19.351Z,24.02
2022-08-11T09:27:23.164Z,23.99
2022-08-11T09:28:29.608Z,23.98
2022-08-11T09:29:33.071Z,23.96
2022-08-11T09:30:36.984Z,23.96
2022-08-11T09:31:40.627Z,23.95
2022-08-11T09:32:44.423Z,23.94
2022-08-11T09:33:47.801Z,23.93
2022-08-11T09:34:52.492Z,23.90
2022-08-11T09:35:57.562Z,23.88
2022-08-11T09:37:54.419Z,23.84
2022-08-11T09:39:00.591Z,23.78
2022-08-11T09:40:22.837Z,23.75
2022-08-11T09:42:00.415Z,23.73
2022-08-11T09:43:17.442Z,23.75
2022-08-11T09:44:39.552Z,23.77
2022-08-11T09:45:46.349Z,23.80
2022-08-11T09:46:50.242Z,23.82
2022-08-11T09:47:55.584Z,23.85
2022-08-11T09:48:59.628Z,23.89
2022-08-11T09:50:03.395Z,23.93
2022-08-11T09:51:07.349Z,23.97
2022-08-11T09:52:11.044Z,23.99
2022-08-11T09:53:36.182Z,24.02
2022-08-11T09:54:39.029Z,24.06
2022-08-11T09:55:43.449Z,24.09
2022-08-11T09:57:05.549Z,24.13
2022-08-11T09:58:42.678Z,24.18
2022-08-11T09:59:37.885Z,24.22
2022-08-11T10:00:41.166Z,24.25
2022-08-11T10:01:47.250Z,24.25
2022-08-11T10:02:53.241Z,24.22
2022-08-11T10:04:11.587Z,24.18
2022-08-11T10:05:37.454Z,24.13
2022-08-11T10:06:59.327Z,24.09
2022-08-11T10:08:02.899Z,24.09
2022-08-11T10:09:06.374Z,24.10
2022-08-11T10:10:10.072Z,24.11
2022-08-11T10:11:15.404Z,24.13
2022-08-11T10:12:26.926Z,24.15
2022-08-11T10:14:04.825Z,24.18
2022-08-11T10:15:22.214Z,24.22
2022-08-11T10:16:27.949Z,24.27
2022-08-11T10:17:33.068Z,24.28
2022-08-11T10:18:49.373Z,24.31
2022-08-11T10:20:04.345Z,24.34
2022-08-11T10:21:08.813Z,24.36
2022-08-11T10:22:30.255Z,24.38
2022-08-11T10:24:01.188Z,24.41
2022-08-11T10:25:27.704Z,24.46
2022-08-11T10:26:49.613Z,24.49
2022-08-11T10:28:28.946Z,24.51
2022-08-11T10:29:44.562Z,24.54
2022-08-11T10:31:12.554Z,24.58
2022-08-11T10:32:58.136Z,24.64
2022-08-11T10:34:06.279Z,24.73
2022-08-11T10:35:14.473Z,24.77
2022-08-11T10:36:18.566Z,24.80
2022-08-11T10:37:23.395Z,24.80
2022-08-11T10:38:27.260Z,24.78
2022-08-11T10:39:30.309Z,24.75
2022-08-11T10:40:33.725Z,24.73
2022-08-11T10:42:06.124Z,24.73
2022-08-11T10:44:02.045Z,24.73
2022-08-11T10:44:42.271Z,24.74
2022-08-11T10:46:04.517Z,24.76
2022-08-11T10:47:26.817Z,24.79
2022-08-11T10:48:30.729Z,24.82
2022-08-11T10:49:33.675Z,24.82
2022-08-11T10:50:56.042Z,24.86
2022-08-11T10:52:18.346Z,24.89
2022-08-11T10:53:40.363Z,24.92
2022-08-11T10:55:02.322Z,24.96
2022-08-11T10:56:25.476Z,24.99
2022-08-11T10:58:04.159Z,25.00
2022-08-11T10:59:09.524Z,25.02
2022-08-11T11:00:15.920Z,25.04
2022-08-11T11:01:23.750Z,25.08
2022-08-11T11:02:27.519Z,25.13
2022-08-11T11:03:31.361Z,25.15
2022-08-11T11:04:48.915Z,25.15
2022-08-11T11:06:27.922Z,25.15
2022-08-11T11:07:24.926Z,25.18
2022-08-11T11:10:01.640Z,25.27
2022-08-11T11:11:06.537Z,25.32
2022-08-11T11:12:30.908Z,25.39
2022-08-11T11:13:55.319Z,25.50
2022-08-11T11:15:20.784Z,25.63
2022-08-11T11:16:42.952Z,25.73
2022-08-11T11:17:57.221Z,25.80
2022-08-11T11:19:04.216Z,25.87
2022-08-11T11:20:07.812Z,25.94
2022-08-11T11:21:14.563Z,26.01
2022-08-11T11:22:36.279Z,26.10
2022-08-11T11:23:42.139Z,26.21
2022-08-11T11:24:58.887Z,26.30
2022-08-11T11:26:11.042Z,26.44
2022-08-11T11:27:32.667Z,26.74
2022-08-11T11:28:54.650Z,27.21
2022-08-11T11:30:08.834Z,27.69
2022-08-11T11:31:24.127Z,28.05
2022-08-11T11:32:35.942Z,28.35
2022-08-11T11:34:12.808Z,28.56
2022-08-11T11:35:15.938Z,28.71
2022-08-11T11:36:25.649Z,28.78
2022-08-11T11:37:30.586Z,28.85
2022-08-11T11:38:33.654Z,28.90
2022-08-11T11:39:37.296Z,28.94
2022-08-11T11:40:40.630Z,29.00
2022-08-11T11:41:43.781Z,29.06
2022-08-11T11:42:48.315Z,29.16
2022-08-11T11:43:55.927Z,29.25
2022-08-11T11:45:01.483Z,29.33
2022-08-11T11:46:05.355Z,29.43
2022-08-11T11:47:08.879Z,29.54
2022-08-11T11:48:12.031Z,29.63
2022-08-11T11:49:17.513Z,29.74
2022-08-11T11:50:31.747Z,29.87
2022-08-11T11:51:37.536Z,30.00
2022-08-11T11:52:41.307Z,30.10
2022-08-11T11:53:45.561Z,30.22
2022-08-11T11:54:50.548Z,30.31
2022-08-11T11:55:53.862Z,30.40
2022-08-11T11:56:57.824Z,30.47
2022-08-11T11:58:20.281Z,30.58
2022-08-11T11:59:44.943Z,30.72
2022-08-11T12:01:07.004Z,30.88
2022-08-11T12:02:12.399Z,31.03
2022-08-11T12:03:16.437Z,31.14
2022-08-11T12:04:20.392Z,31.27
2022-08-11T12:05:24.120Z,31.42
2022-08-11T12:06:28.250Z,31.58
2022-08-11T12:08:04.847Z,31.75
2022-08-11T12:09:18.457Z,31.98
2022-08-11T12:10:21.899Z,32.13
2022-08-11T12:11:44.346Z,32.27
2022-08-11T12:13:06.669Z,32.46
2022-08-11T12:14:11.204Z,32.66
2022-08-11T12:15:14.537Z,32.82
2022-08-11T12:16:33.573Z,32.96
2022-08-11T12:17:39.780Z,33.12
2022-08-11T12:18:43.778Z,33.19
2022-08-11T12:19:48.601Z,33.23
2022-08-11T12:20:51.655Z,33.27
2022-08-11T12:22:16.488Z,33.37
2022-08-11T12:23:38.282Z,33.57
2022-08-11T12:24:59.925Z,33.74
2022-08-11T12:26:27.317Z,33.83
2022-08-11T12:27:30.917Z,33.99
2022-08-11T12:28:34.206Z,34.14
2022-08-11T12:29:41.139Z,34.30
2022-08-11T12:30:49.588Z,34.40
2022-08-11T12:31:58.751Z,34.53
2022-08-11T12:33:01.912Z,34.67
2022-08-11T12:34:10.891Z,34.81
2022-08-11T12:35:15.318Z,34.92
2022-08-11T12:36:20.193Z,35.04
2022-08-11T12:37:54.265Z,35.15
2022-08-11T12:39:00.753Z,35.32
2022-08-11T12:40:43.711Z,35.45
2022-08-11T12:42:18.424Z,35.59
2022-08-11T12:43:42.114Z,35.77
2022-08-11T12:45:03.695Z,35.98
2022-08-11T12:46:08.604Z,36.10
2022-08-11T12:47:12.944Z,36.26
2022-08-11T12:48:58.854Z,36.38
2022-08-11T12:50:22.950Z,36.73
2022-08-11T12:52:11.727Z,37.11
2022-08-11T12:53:12.188Z,37.48
2022-08-11T12:54:17.304Z,37.65
2022-08-11T12:55:42.362Z,37.81
2022-08-11T12:57:36.125Z,38.05
2022-08-11T12:58:41.782Z,38.44
2022-08-11T13:00:04.047Z,38.71
2022-08-11T13:01:26.046Z,38.98
2022-08-11T13:02:47.889Z,39.25
2022-08-11T13:04:09.752Z,39.37
2022-08-11T13:05:13.419Z,39.47
2022-08-11T13:06:18.690Z,39.56
2022-08-11T13:07:22.747Z,39.63
2022-08-11T13:08:26.778Z,39.64
2022-08-11T13:09:30.766Z,39.67
2022-08-11T13:10:52.569Z,39.73
2022-08-11T13:12:14.083Z,39.84
2022-08-11T13:13:55.600Z,39.92
2022-08-11T13:14:41.692Z,39.97
2022-08-11T13:15:46.462Z,39.99
2022-08-11T13:17:08.097Z,40.04
2022-08-11T13:18:15.050Z,40.19
2022-08-11T13:19:18.635Z,40.28
2022-08-11T13:20:23.040Z,40.27
2022-08-11T13:21:26.663Z,40.31
2022-08-11T13:22:30.119Z,40.37
2022-08-11T13:23:38.099Z,40.43
2022-08-11T13:24:41.094Z,40.51
2022-08-11T13:25:44.374Z,40.62
2022-08-11T13:26:50.315Z,40.63
2022-08-11T13:27:56.196Z,40.61
2022-08-11T13:29:03.892Z,40.58
2022-08-11T13:30:25.635Z,40.54
2022-08-11T13:31:29.065Z,40.30
2022-08-11T13:32:33.826Z,40.16
2022-08-11T13:33:47.565Z,40.06
2022-08-11T13:34:52.478Z,39.98
2022-08-11T13:35:56.034Z,40.00
2022-08-11T13:37:01.070Z,40.12
2022-08-11T13:38:19.184Z,40.29
2022-08-11T13:39:25.184Z,40.30
2022-08-11T13:40:45.737Z,40.40
2022-08-11T13:41:56.915Z,40.38
2022-08-11T13:43:00.488Z,40.42
2022-08-11T13:44:04.508Z,40.45
2022-08-11T13:45:08.115Z,40.57
2022-08-11T13:46:20.530Z,40.56
2022-08-11T13:47:24.970Z,40.59
2022-08-11T13:48:28.362Z,40.62
2022-08-11T13:49:33.284Z,40.70
2022-08-11T13:50:55.077Z,40.81
2022-08-11T13:51:58.792Z,40.88
2022-08-11T13:53:02.124Z,40.98
2022-08-11T13:54:09.442Z,41.06
2022-08-11T13:55:51.113Z,41.14
2022-08-11T13:56:47.038Z,41.21
2022-08-11T13:58:19.594Z,41.24
2022-08-11T13:59:20.407Z,41.41
2022-08-11T14:00:31.252Z,41.51
2022-08-11T14:02:21.415Z,41.55
2022-08-11T14:03:00.191Z,41.56
2022-08-11T14:04:30.734Z,41.57
2022-08-11T14:05:38.985Z,41.65
2022-08-11T14:06:49.194Z,41.66
2022-08-11T14:08:33.435Z,41.70
2022-08-11T14:09:43.543Z,41.82
2022-08-11T14:12:20.258Z,41.96
2022-08-11T14:12:52.800Z,42.15
2022-08-11T14:13:57.159Z,42.22
2022-08-11T14:15:08.175Z,42.18
2022-08-11T14:16:25.072Z,42.13
2022-08-11T14:17:35.985Z,42.13
2022-08-11T14:18:53.947Z,42.19
2022-08-11T14:19:57.681Z,42.22
2022-08-11T14:21:20.342Z,42.29
2022-08-11T14:22:23.984Z,42.35
2022-08-11T14:23:32.915Z,42.35
2022-08-11T14:24:40.615Z,42.38
2022-08-11T14:26:04.050Z,42.47
2022-08-11T14:28:29.395Z,42.46
2022-08-11T14:28:40.236Z,42.48
2022-08-11T14:29:48.932Z,42.55
2022-08-11T14:30:58.943Z,42.59
2022-08-11T14:32:05.379Z,42.66
2022-08-11T14:33:16.908Z,42.73
2022-08-11T14:34:21.874Z,42.80
2022-08-11T14:35:27.223Z,42.92
2022-08-11T14:36:32.811Z,43.00
2022-08-11T14:37:37.919Z,43.02
2022-08-11T14:38:41.760Z,43.05
2022-08-11T14:39:54.009Z,43.08
2022-08-11T14:41:15.930Z,43.11
2022-08-11T14:42:38.230Z,43.12
2022-08-11T14:44:10.425Z,43.11
2022-08-11T14:45:58.314Z,43.07
2022-08-11T14:47:22.934Z,43.22
2022-08-11T14:48:26.867Z,43.33
2022-08-11T14:49:30.288Z,43.34
2022-08-11T14:50:34.470Z,43.38
2022-08-11T14:51:37.790Z,43.46
2022-08-11T14:52:45.973Z,43.57
2022-08-11T14:54:09.159Z,43.68
2022-08-11T14:55:31.207Z,43.78
2022-08-11T14:56:38.022Z,43.71
2022-08-11T14:57:54.731Z,43.71
2022-08-11T14:59:00.213Z,43.72
2022-08-11T15:00:06.833Z,43.71
2022-08-11T15:01:30.118Z,43.71
2022-08-11T15:02:52.685Z,43.75
2022-08-11T15:04:25.038Z,43.77
2022-08-11T15:05:20.509Z,43.75
2022-08-11T15:06:25.521Z,43.71
2022-08-11T15:07:31.752Z,43.70
2022-08-11T15:08:56.880Z,43.66
2022-08-11T15:10:16.800Z,43.64
2022-08-11T15:11:40.169Z,43.61
2022-08-11T15:12:43.415Z,43.57
2022-08-11T15:13:46.421Z,43.57
2022-08-11T15:15:08.617Z,43.61
2022-08-11T15:16:30.184Z,43.67
2022-08-11T15:17:43.040Z,43.71
2022-08-11T15:18:46.911Z,43.74
2022-08-11T15:20:09.288Z,43.67
2022-08-11T15:21:30.546Z,43.59
2022-08-11T15:22:52.365Z,43.49
2022-08-11T15:24:13.841Z,43.39
2022-08-11T15:25:16.773Z,43.27
2022-08-11T15:26:46.218Z,43.10
2022-08-11T15:28:09.810Z,42.69
2022-08-11T15:29:33.279Z,42.10
2022-08-11T15:30:55.995Z,41.35
2022-08-11T15:32:17.826Z,40.55
2022-08-11T15:33:40.536Z,39.73
2022-08-11T15:35:04.162Z,38.88
2022-08-11T15:36:27.542Z,38.03
2022-08-11T15:37:32.114Z,37.24
2022-08-11T15:38:36.403Z,36.67
2022-08-11T15:40:31.212Z,36.11
2022-08-11T15:42:00.443Z,35.14
2022-08-11T15:43:29.295Z,34.41
2022-08-11T15:45:08.840Z,33.68
2022-08-11T15:46:17.542Z,32.93
2022-08-11T15:47:23.239Z,32.44
2022-08-11T15:48:34.373Z,31.97
2022-08-11T15:50:10.796Z,31.50
2022-08-11T15:51:06.203Z,31.03
2022-08-11T15:52:11.047Z,30.69
2022-08-11T15:53:20.279Z,30.37
2022-08-11T15:54:28.944Z,30.01
2022-08-11T15:55:34.985Z,29.71
2022-08-11T15:56:40.025Z,29.39
2022-08-11T15:58:15.563Z,29.13
2022-08-11T15:59:41.470Z,28.69
2022-08-11T16:01:09.920Z,28.33
2022-08-11T16:02:32.942Z,27.98
2022-08-11T16:04:07.323Z,27.70
2022-08-11T16:05:13.598Z,27.40
2022-08-11T16:06:17.604Z,27.20
2022-08-11T16:07:26.775Z,27.07
2022-08-11T16:08:33.116Z,26.84
2022-08-11T16:09:47.683Z,26.63
2022-08-11T16:10:56.736Z,26.41
2022-08-11T16:12:01.987Z,26.23
2022-08-11T16:13:06.282Z,26.07